createdAt,value
2022-08-14T00:01:10.214Z,5.40
2022-08-14T00:03:40.456Z,5.00
2022-08-14T00:06:14.084Z,5.10
2022-08-14T00:08:55.514Z,5.13
2022-08-14T00:11:25.779Z,6.45
2022-08-14T00:13:58.233Z,5.37
2022-08-14T00:16:41.611Z,5.75
2022-08-14T00:19:19.277Z,5.00
2022-08-14T00:21:47.756Z,5.55
2022-08-14T00:24:22.982Z,5.50
2022-08-14T00:26:55.636Z,4.97
2022-08-14T00:29:22.001Z,5.57
2022-08-14T00:31:56.277Z,6.18
2022-08-14T00:34:36.121Z,6.25
2022-08-14T00:37:05.583Z,6.13
2022-08-14T00:39:32.215Z,7.77
2022-08-14T00:41:58.860Z,6.20
2022-08-14T00:44:27.512Z,6.43
2022-08-14T00:47:00.239Z,5.55
2022-08-14T00:49:28.638Z,5.22
2022-08-14T00:51:56.764Z,5.90
2022-08-14T00:54:24.879Z,5.70
2022-08-14T00:56:55.722Z,5.57
2022-08-14T00:59:24.720Z,7.22
2022-08-14T01:01:53.897Z,7.22
2022-08-14T01:04:51.618Z,6.93
2022-08-14T01:07:09.133Z,10.20
2022-08-14T01:09:39.100Z,6.95
2022-08-14T01:12:07.777Z,6.45
2022-08-14T01:14:34.701Z,5.53
2022-08-14T01:17:02.213Z,6.43
2022-08-14T01:19:48.026Z,8.00
2022-08-14T01:22:18.792Z,6.97
2022-08-14T01:24:46.923Z,6.25
2022-08-14T01:27:18.431Z,8.40
2022-08-14T01:30:03.346Z,6.20
2022-08-14T01:32:37.730Z,6.22
2022-08-14T01:35:17.699Z,9.55
2022-08-14T01:37:57.905Z,6.72
2022-08-14T01:40:36.817Z,6.82
2022-08-14T01:43:14.449Z,6.27
2022-08-14T01:45:41.964Z,8.55
2022-08-14T01:48:13.930Z,7.15
2022-08-14T01:50:41.987Z,6.57
2022-08-14T01:53:09.700Z,6.28
2022-08-14T01:55:38.524Z,7.67
2022-08-14T01:58:19.442Z,6.93
2022-08-14T02:00:55.055Z,7.38
2022-08-14T02:03:30.903Z,7.10
2022-08-14T02:06:32.098Z,8.52
2022-08-14T02:08:52.450Z,6.57
2022-08-14T02:11:23.086Z,7.40
2022-08-14T02:14:07.339Z,7.22
2022-08-14T02:16:43.228Z,8.57
2022-08-14T02:19:14.236Z,7.35
2022-08-14T02:21:48.849Z,7.87
2022-08-14T02:24:39.618Z,7.25
2022-08-14T02:28:25.514Z,9.27
2022-08-14T02:29:56.171Z,7.82
2022-08-14T02:32:30.501Z,10.10
2022-08-14T02:35:11.401Z,8.50
2022-08-14T02:37:48.115Z,9.32
2022-08-14T02:40:16.416Z,6.95
2022-08-14T02:42:54.923Z,7.35
2022-08-14T02:45:33.583Z,8.48
2022-08-14T02:48:10.602Z,7.23
2022-08-14T02:50:54.028Z,11.20
2022-08-14T02:53:20.416Z,7.35
2022-08-14T02:55:46.954Z,8.48
2022-08-14T02:58:21.416Z,7.25
2022-08-14T03:00:57.543Z,8.67
2022-08-14T03:03:24.728Z,7.63
2022-08-14T03:05:54.307Z,7.60
2022-08-14T03:08:22.058Z,7.30
2022-08-14T03:10:50.056Z,9.85
2022-08-14T03:13:19.801Z,9.00
2022-08-14T03:15:55.616Z,10.90
2022-08-14T03:18:30.615Z,7.55
2022-08-14T03:21:05.759Z,8.05
2022-08-14T03:23:38.293Z,8.55
2022-08-14T03:26:08.330Z,8.80
2022-08-14T03:28:34.770Z,9.23
2022-08-14T03:31:04.228Z,11.02
2022-08-14T03:33:40.373Z,9.80
2022-08-14T03:37:37.371Z,8.27
2022-08-14T03:39:13.383Z,8.37
2022-08-14T03:41:46.283Z,8.80
2022-08-14T03:45:26.937Z,9.07
2022-08-14T03:46:59.427Z,9.65
2022-08-14T03:49:30.140Z,12.05
2022-08-14T03:52:00.831Z,11.43
2022-08-14T03:54:28.705Z,11.70
2022-08-14T03:56:55.844Z,14.40
2022-08-14T03:59:22.305Z,10.68
2022-08-14T04:02:01.983Z,8.93
2022-08-14T04:04:30.728Z,10.47
2022-08-14T04:06:59.286Z,10.73
2022-08-14T04:09:26.977Z,10.07
2022-08-14T04:11:53.896Z,13.32
2022-08-14T04:14:20.404Z,10.45
2022-08-14T04:16:47.889Z,10.63
2022-08-14T04:19:18.677Z,9.35
2022-08-14T04:22:02.992Z,10.68
2022-08-14T04:24:37.812Z,10.10
2022-08-14T04:27:05.820Z,11.35
2022-08-14T04:29:32.825Z,11.67
2022-08-14T04:32:57.834Z,10.40
2022-08-14T04:34:51.953Z,10.50
2022-08-14T04:37:45.269Z,11.93
2022-08-14T04:40:31.300Z,12.55
2022-08-14T04:43:17.433Z,10.33
2022-08-14T04:45:45.180Z,9.93
2022-08-14T04:48:39.214Z,11.35
2022-08-14T04:51:01.277Z,11.85
2022-08-14T04:53:35.263Z,13.40
2022-08-14T04:56:03.244Z,11.00
2022-08-14T04:58:34.019Z,13.88
2022-08-14T05:01:02.446Z,12.50
2022-08-14T05:03:31.797Z,14.70
2022-08-14T05:06:01.300Z,12.25
2022-08-14T05:08:32.304Z,12.10
2022-08-14T05:11:15.873Z,13.57
2022-08-14T05:16:31.661Z,13.73
2022-08-14T05:19:17.889Z,15.13
2022-08-14T05:21:59.585Z,12.37
2022-08-14T05:24:28.664Z,14.35
2022-08-14T05:26:56.768Z,12.65
2022-08-14T05:29:23.456Z,12.48
2022-08-14T05:31:50.518Z,12.55
2022-08-14T05:34:23.802Z,14.50
2022-08-14T05:36:58.849Z,12.05
2022-08-14T05:39:29.801Z,14.95
2022-08-14T05:41:56.677Z,13.13
2022-08-14T05:44:29.191Z,10.70
2022-08-14T05:46:56.560Z,11.47
2022-08-14T05:49:23.166Z,15.48
2022-08-14T05:51:52.661Z,14.00
2022-08-14T05:54:26.987Z,12.10
2022-08-14T05:56:54.250Z,12.55
2022-08-14T05:59:21.741Z,11.27
2022-08-14T06:02:03.604Z,10.90
2022-08-14T06:04:32.466Z,10.45
2022-08-14T06:06:59.088Z,13.95
2022-08-14T06:09:25.547Z,12.93
2022-08-14T06:11:52.222Z,13.13
2022-08-14T06:14:24.060Z,13.93
2022-08-14T06:16:52.003Z,10.82
2022-08-14T06:19:20.272Z,12.98
2022-08-14T06:21:53.235Z,11.07
2022-08-14T06:24:24.656Z,10.93
2022-08-14T06:26:56.938Z,11.30
2022-08-14T06:29:33.404Z,11.55
2022-08-14T06:32:36.923Z,14.05
2022-08-14T06:35:04.465Z,11.07
2022-08-14T06:37:41.391Z,12.23
2022-08-14T06:40:25.519Z,12.18
2022-08-14T06:42:54.820Z,12.60
2022-08-14T06:45:21.265Z,13.15
2022-08-14T06:47:53.970Z,13.75
2022-08-14T06:50:28.209Z,14.40
2022-08-14T06:52:55.660Z,12.73
2022-08-14T06:55:25.927Z,13.40
2022-08-14T06:57:54.965Z,11.95
2022-08-14T07:00:27.097Z,11.43
2022-08-14T07:03:12.618Z,10.87
2022-08-14T07:05:55.417Z,11.55
2022-08-14T07:08:28.774Z,13.30
2022-08-14T07:11:03.861Z,11.48
2022-08-14T07:13:31.039Z,13.00
2022-08-14T07:16:00.354Z,12.60
2022-08-14T07:18:30.495Z,13.82
2022-08-14T07:20:58.567Z,11.65
2022-08-14T07:23:25.921Z,9.93
2022-08-14T07:25:54.660Z,12.80
2022-08-14T07:28:34.738Z,12.00
2022-08-14T07:31:05.845Z,11.63
2022-08-14T07:33:42.039Z,10.15
2022-08-14T07:36:27.036Z,11.07
2022-08-14T07:38:58.220Z,10.57
2022-08-14T07:41:24.599Z,10.83
2022-08-14T07:43:57.896Z,9.50
2022-08-14T07:46:28.478Z,9.45
2022-08-14T07:48:56.832Z,8.88
2022-08-14T07:51:23.993Z,10.82
2022-08-14T07:53:56.820Z,9.00
2022-08-14T07:56:44.173Z,8.65
2022-08-14T07:59:11.077Z,9.13
2022-08-14T08:01:39.335Z,7.93
2022-08-14T08:04:16.780Z,8.57
2022-08-14T08:06:51.023Z,8.57
2022-08-14T08:09:20.727Z,9.35
2022-08-14T08:11:54.480Z,8.25
2022-08-14T08:14:24.860Z,9.88
2022-08-14T08:16:54.122Z,9.57
2022-08-14T08:19:20.725Z,8.70
2022-08-14T08:21:47.824Z,7.45
2022-08-14T08:24:20.004Z,8.00
2022-08-14T08:26:50.490Z,7.65
2022-08-14T08:29:28.895Z,8.30
2022-08-14T08:32:01.851Z,8.97
2022-08-14T08:34:31.692Z,7.13
2022-08-14T08:36:58.476Z,7.07
2022-08-14T08:39:24.891Z,8.70
2022-08-14T08:41:57.244Z,7.30
2022-08-14T08:44:32.846Z,7.07
2022-08-14T08:47:05.311Z,6.53
2022-08-14T08:49:52.725Z,7.50
2022-08-14T08:52:31.795Z,9.02
2022-08-14T08:54:59.535Z,7.80
2022-08-14T08:57:27.267Z,6.83
2022-08-14T08:59:54.694Z,6.60
2022-08-14T09:02:22.594Z,7.80
2022-08-14T09:05:02.039Z,10.70
2022-08-14T09:07:28.442Z,6.60
2022-08-14T09:09:59.379Z,9.40
2022-08-14T09:12:31.771Z,9.02
2022-08-14T09:15:00.868Z,8.95
2022-08-14T09:17:27.885Z,6.90
2022-08-14T09:19:54.256Z,7.72
2022-08-14T09:22:33.740Z,8.53
2022-08-14T09:25:08.466Z,9.00
2022-08-14T09:27:37.975Z,6.50
2022-08-14T09:30:12.682Z,6.88
2022-08-14T09:33:09.367Z,8.52
2022-08-14T09:36:20.006Z,5.87
2022-08-14T09:39:23.240Z,7.70
2022-08-14T09:42:21.275Z,6.65
2022-08-14T09:45:19.255Z,7.15
2022-08-14T09:47:51.836Z,6.25
2022-08-14T09:50:26.094Z,6.97
2022-08-14T09:53:04.041Z,7.22
2022-08-14T09:55:41.725Z,6.18
2022-08-14T09:58:20.080Z,6.68
2022-08-14T10:01:01.541Z,6.18
2022-08-14T10:03:34.414Z,6.63
2022-08-14T10:06:08.751Z,6.38
2022-08-14T10:08:50.743Z,6.55
2022-08-14T10:11:19.355Z,6.95
2022-08-14T10:13:55.801Z,7.55
2022-08-14T10:16:27.170Z,9.23
2022-08-14T10:19:07.652Z,6.82
2022-08-14T10:21:38.811Z,8.45
2022-08-14T10:24:36.341Z,8.75
2022-08-14T10:27:03.605Z,7.13
2022-08-14T10:29:38.624Z,7.40
2022-08-14T10:32:18.319Z,7.93
2022-08-14T10:35:04.768Z,6.05
2022-08-14T10:37:38.867Z,6.57
2022-08-14T10:40:36.759Z,5.82
2022-08-14T10:42:54.439Z,6.70
2022-08-14T10:45:30.296Z,7.90
2022-08-14T10:48:07.857Z,6.70
2022-08-14T10:50:41.316Z,9.00
2022-08-14T10:53:08.960Z,5.80
2022-08-14T10:55:45.149Z,5.90
2022-08-14T10:58:12.719Z,5.90
2022-08-14T11:00:55.509Z,5.22
2022-08-14T11:03:26.648Z,5.00
2022-08-14T11:06:19.790Z,5.07
2022-08-14T11:08:48.538Z,5.07
2022-08-14T11:11:18.414Z,7.15
2022-08-14T11:13:46.380Z,5.05
2022-08-14T11:16:15.926Z,7.28
2022-08-14T11:18:50.906Z,5.95
2022-08-14T11:21:22.918Z,4.60
2022-08-14T11:23:53.429Z,4.63
2022-08-14T11:26:22.608Z,6.13
2022-08-14T11:28:50.988Z,4.90
2022-08-14T11:31:25.733Z,4.45
2022-08-14T11:33:55.606Z,4.67
2022-08-14T11:36:23.973Z,4.47
2022-08-14T11:39:01.847Z,5.15
2022-08-14T11:41:28.275Z,7.00
2022-08-14T11:43:56.269Z,4.60
2022-08-14T11:46:29.695Z,4.80
2022-08-14T11:49:02.969Z,5.75
2022-08-14T11:51:36.354Z,5.30
2022-08-14T11:54:19.475Z,4.72
2022-08-14T11:56:49.757Z,5.47
2022-08-14T11:59:19.609Z,4.80
2022-08-14T12:01:52.833Z,6.00
2022-08-14T12:04:21.540Z,5.95
2022-08-14T12:07:00.711Z,6.93
2022-08-14T12:09:33.213Z,5.47
2022-08-14T12:12:01.393Z,7.13
2022-08-14T12:14:30.298Z,5.30
2022-08-14T12:17:09.503Z,5.07
2022-08-14T12:19:46.161Z,7.00
2022-08-14T12:22:29.541Z,4.75
2022-08-14T12:24:56.834Z,5.70
2022-08-14T12:27:25.207Z,5.47
2022-08-14T12:29:53.873Z,5.88
2022-08-14T12:32:20.254Z,5.75
2022-08-14T12:34:53.307Z,8.18
2022-08-14T12:37:29.963Z,6.30
2022-08-14T12:39:57.189Z,5.07
2022-08-14T12:42:36.476Z,5.20
2022-08-14T12:45:08.337Z,6.15
2022-08-14T12:47:34.887Z,5.32
2022-08-14T12:50:02.346Z,5.33
2022-08-14T12:53:01.910Z,5.30
2022-08-14T12:56:17.982Z,5.70
2022-08-14T12:58:34.957Z,5.95
2022-08-14T13:01:20.569Z,5.93
2022-08-14T13:03:48.237Z,5.03
2022-08-14T13:06:19.155Z,5.43
2022-08-14T13:08:53.057Z,5.35
2022-08-14T13:11:24.098Z,5.40
2022-08-14T13:13:58.408Z,6.18
2022-08-14T13:16:38.183Z,5.43
2022-08-14T13:19:10.981Z,5.20
2022-08-14T13:22:05.703Z,6.32
2022-08-14T13:24:27.954Z,4.80
2022-08-14T13:26:56.916Z,5.60
2022-08-14T13:29:29.673Z,5.30
2022-08-14T13:31:58.243Z,5.38
2022-08-14T13:34:27.011Z,8.50
2022-08-14T13:37:03.636Z,6.03
2022-08-14T13:39:36.474Z,5.95
2022-08-14T13:42:13.355Z,5.90
2022-08-14T13:44:42.973Z,5.55
2022-08-14T13:47:10.578Z,5.43
2022-08-14T13:49:57.155Z,5.40
2022-08-14T13:52:52.941Z,5.25
2022-08-14T13:55:13.532Z,5.77
2022-08-14T13:57:49.469Z,6.20
2022-08-14T14:00:21.863Z,5.22
2022-08-14T14:03:00.166Z,5.53
2022-08-14T14:05:52.772Z,5.28
2022-08-14T14:08:18.745Z,8.87
2022-08-14T14:10:45.735Z,5.40
2022-08-14T14:13:20.013Z,6.03
2022-08-14T14:15:58.300Z,5.38
2022-08-14T14:18:33.863Z,5.05
2022-08-14T14:21:02.744Z,4.90
2022-08-14T14:23:30.229Z,5.28
2022-08-14T14:25:57.599Z,5.78
2022-08-14T14:28:31.344Z,5.38
2022-08-14T14:31:01.228Z,5.20
2022-08-14T14:33:50.740Z,5.17
2022-08-14T14:36:25.901Z,6.30
2022-08-14T14:38:58.059Z,5.65
2022-08-14T14:41:38.265Z,5.60
2022-08-14T14:44:13.377Z,5.28
2022-08-14T14:46:43.313Z,6.83
2022-08-14T14:49:14.105Z,5.70
2022-08-14T14:51:45.061Z,5.85
2022-08-14T14:54:17.797Z,5.45
2022-08-14T14:56:50.878Z,5.95
2022-08-14T14:59:20.720Z,5.53
2022-08-14T15:01:49.828Z,5.22
2022-08-14T15:04:20.591Z,5.45
2022-08-14T15:06:48.279Z,5.10
2022-08-14T15:09:17.611Z,5.80
2022-08-14T15:11:45.869Z,5.97
2022-08-14T15:14:56.462Z,5.53
2022-08-14T15:17:01.793Z,5.95
2022-08-14T15:19:28.247Z,5.60
2022-08-14T15:21:55.289Z,5.32
2022-08-14T15:24:26.589Z,6.70
2022-08-14T15:26:53.847Z,5.45
2022-08-14T15:29:20.383Z,5.70
2022-08-14T15:31:46.753Z,5.93
2022-08-14T15:34:44.088Z,5.55
2022-08-14T15:37:05.123Z,5.97
2022-08-14T15:39:35.359Z,5.75
2022-08-14T15:42:15.006Z,5.53
2022-08-14T15:44:58.525Z,7.05
2022-08-14T15:47:30.790Z,9.13
2022-08-14T15:50:00.549Z,6.97
2022-08-14T15:52:33.166Z,5.80
2022-08-14T15:55:09.702Z,6.25
2022-08-14T15:57:39.409Z,5.50
2022-08-14T16:00:49.688Z,5.85
2022-08-14T16:03:18.444Z,5.73
2022-08-14T16:05:55.694Z,5.97
2022-08-14T16:08:27.308Z,6.93
2022-08-14T16:10:58.535Z,5.65
2022-08-14T16:13:41.742Z,5.43
2022-08-14T16:16:34.689Z,6.50
2022-08-14T16:18:59.553Z,5.40
2022-08-14T16:21:31.517Z,6.00
2022-08-14T16:24:00.442Z,5.75
2022-08-14T16:26:29.121Z,5.75
2022-08-14T16:29:02.329Z,5.43
2022-08-14T16:31:36.030Z,5.18
2022-08-14T16:34:46.274Z,4.75
2022-08-14T16:36:53.723Z,5.88
2022-08-14T16:39:22.379Z,5.55
2022-08-14T16:41:52.416Z,6.40
2022-08-14T16:44:31.693Z,4.93
2022-08-14T16:47:04.208Z,5.25
2022-08-14T16:50:02.749Z,5.18
2022-08-14T16:52:25.839Z,5.90
2022-08-14T16:55:06.823Z,6.30
2022-08-14T16:57:34.323Z,6.25
2022-08-14T17:00:07.258Z,5.13
2022-08-14T17:02:46.335Z,5.68
2022-08-14T17:05:24.658Z,6.07
2022-08-14T17:08:33.108Z,5.50
2022-08-14T17:11:10.618Z,5.60
2022-08-14T17:13:59.066Z,5.30
2022-08-14T17:16:33.028Z,4.65
2022-08-14T17:19:03.903Z,5.22
2022-08-14T17:21:38.141Z,6.17
2022-08-14T17:24:57.128Z,4.70
2022-08-14T17:26:58.451Z,5.00
2022-08-14T17:29:31.069Z,5.32
2022-08-14T17:32:01.839Z,6.63
2022-08-14T17:34:44.378Z,7.37
2022-08-14T17:37:37.504Z,6.22
2022-08-14T17:40:15.910Z,6.00
2022-08-14T17:42:51.020Z,5.68
2022-08-14T17:45:38.954Z,6.22
2022-08-14T17:49:10.545Z,6.20
2022-08-14T17:51:14.115Z,6.03
2022-08-14T17:53:53.294Z,5.47
2022-08-14T17:56:20.609Z,5.50
2022-08-14T17:58:49.222Z,5.50
2022-08-14T18:01:17.047Z,6.77
2022-08-14T18:03:53.608Z,5.60
2022-08-14T18:06:38.697Z,6.55
2022-08-14T18:09:25.090Z,6.13
2022-08-14T18:11:58.165Z,5.93
2022-08-14T18:14:32.375Z,8.37
2022-08-14T18:17:13.512Z,7.55
2022-08-14T18:19:44.543Z,6.45
2022-08-14T18:22:31.340Z,6.20
2022-08-14T18:24:58.462Z,5.20
2022-08-14T18:27:38.861Z,10.27
2022-08-14T18:30:33.130Z,6.53
2022-08-14T18:32:59.059Z,6.35
2022-08-14T18:35:59.122Z,6.22
2022-08-14T18:38:45.724Z,5.53
2022-08-14T18:41:36.836Z,6.97
2022-08-14T18:44:05.108Z,6.40
2022-08-14T18:47:08.442Z,6.95
2022-08-14T18:49:57.647Z,5.22
2022-08-14T18:52:33.374Z,6.00
2022-08-14T18:55:20.609Z,8.43
2022-08-14T18:58:24.497Z,7.90
2022-08-14T19:00:54.954Z,14.07
2022-08-14T19:03:33.666Z,10.10
2022-08-14T19:06:03.129Z,9.30
2022-08-14T19:08:41.454Z,9.73
2022-08-14T19:11:39.514Z,11.00
2022-08-14T19:14:07.492Z,10.32
2022-08-14T19:16:36.852Z,15.02
2022-08-14T19:19:06.768Z,9.30
2022-08-14T19:21:35.673Z,9.20
2022-08-14T19:24:27.156Z,7.68
2022-08-14T19:27:16.660Z,11.73
2022-08-14T19:29:47.785Z,7.57
2022-08-14T19:32:38.875Z,13.32
2022-08-14T19:35:16.679Z,7.30
2022-08-14T19:37:54.869Z,7.15
2022-08-14T19:40:34.703Z,7.80
2022-08-14T19:43:06.365Z,7.25
2022-08-14T19:45:33.628Z,10.18
2022-08-14T19:48:00.675Z,9.73
2022-08-14T19:50:40.619Z,8.70
2022-08-14T19:53:17.087Z,7.10
2022-08-14T19:55:56.656Z,11.77
2022-08-14T19:58:30.127Z,8.07
2022-08-14T20:01:01.298Z,6.87
2022-08-14T20:03:59.838Z,7.07
2022-08-14T20:06:37.006Z,7.18
2022-08-14T20:11:05.559Z,6.65
2022-08-14T20:12:04.950Z,8.27
2022-08-14T20:14:36.958Z,7.50
2022-08-14T20:17:06.726Z,6.95
2022-08-14T20:19:37.591Z,7.88
2022-08-14T20:22:35.431Z,7.75
2022-08-14T20:24:55.035Z,8.23
2022-08-14T20:27:33.436Z,6.53
2022-08-14T20:30:29.745Z,8.75
2022-08-14T20:33:04.454Z,7.68
2022-08-14T20:35:41.884Z,7.90
2022-08-14T20:38:33.428Z,6.18
2022-08-14T20:41:08.613Z,7.93
2022-08-14T20:43:59.829Z,9.18
2022-08-14T20:46:31.539Z,7.68
2022-08-14T20:49:01.153Z,9.18
2022-08-14T20:51:38.789Z,9.15
2022-08-14T20:54:11.618Z,8.00
2022-08-14T20:56:40.497Z,8.43
2022-08-14T20:59:17.622Z,10.50
2022-08-14T21:02:28.396Z,7.05
2022-08-14T21:05:00.481Z,6.95
2022-08-14T21:07:35.350Z,8.27
2022-08-14T21:10:33.548Z,7.38
2022-08-14T21:13:26.552Z,6.35
2022-08-14T21:15:57.568Z,8.27
2022-08-14T21:18:28.694Z,8.35
2022-08-14T21:20:56.172Z,9.13
2022-08-14T21:23:23.114Z,7.68
2022-08-14T21:25:49.579Z,8.10
2022-08-14T21:28:29.841Z,7.45
2022-08-14T21:30:57.552Z,9.40
2022-08-14T21:33:24.448Z,9.20
2022-08-14T21:35:54.826Z,7.85
2022-08-14T21:38:22.123Z,8.30
2022-08-14T21:41:41.244Z,7.50
2022-08-14T21:44:03.662Z,7.10
2022-08-14T21:46:30.397Z,7.33
2022-08-14T21:48:58.557Z,7.68
2022-08-14T21:51:56.056Z,9.27
2022-08-14T21:54:30.320Z,9.88
2022-08-14T21:57:00.255Z,8.27
2022-08-14T21:59:32.251Z,8.23
2022-08-14T22:02:03.429Z,8.70
2022-08-14T22:04:40.605Z,9.88
2022-08-14T22:07:10.567Z,8.23
2022-08-14T22:09:38.909Z,13.95
2022-08-14T22:12:11.041Z,7.97
2022-08-14T22:14:57.490Z,11.00
2022-08-14T22:17:24.094Z,8.20
2022-08-14T22:19:54.741Z,10.68
2022-08-14T22:22:24.056Z,7.90
2022-08-14T22:25:00.034Z,11.43
2022-08-14T22:27:28.441Z,9.10
2022-08-14T22:29:58.625Z,8.02
2022-08-14T22:32:34.969Z,10.77
2022-08-14T22:35:03.128Z,8.73
2022-08-14T22:37:29.470Z,9.13
2022-08-14T22:40:48.396Z,9.20
2022-08-14T22:42:42.373Z,9.85
2022-08-14T22:45:36.717Z,10.32
2022-08-14T22:48:09.699Z,11.48
2022-08-14T22:50:48.721Z,9.00
2022-08-14T22:53:20.289Z,8.65
2022-08-14T22:55:46.865Z,9.32
2022-08-14T22:58:17.212Z,9.90
2022-08-14T23:00:45.704Z,8.18
2022-08-14T23:03:17.363Z,8.53
2022-08-14T23:05:52.778Z,10.38
2022-08-14T23:08:57.087Z,9.40
2022-08-14T23:11:07.015Z,9.32
2022-08-14T23:13:33.492Z,9.48
2022-08-14T23:16:00.197Z,9.10
2022-08-14T23:18:29.873Z,9.55
2022-08-14T23:20:57.075Z,9.45
2022-08-14T23:23:24.261Z,8.80
2022-08-14T23:25:58.746Z,8.57
2022-08-14T23:28:34.615Z,10.80
2022-08-14T23:31:34.675Z,10.88
2022-08-14T23:34:06.952Z,11.02
2022-08-14T23:36:37.197Z,9.75
2022-08-14T23:39:10.612Z,9.15
2022-08-14T23:41:53.160Z,8.93
2022-08-14T23:44:23.549Z,11.13
2022-08-14T23:46:52.815Z,9.50
2022-08-14T23:49:25.027Z,11.75
2022-08-14T23:52:49.286Z,8.32
2022-08-14T23:54:49.255Z,8.20
2022-08-14T23:57:19.322Z,9.32
2022-08-14T23:59:54.189Z,9.05
